createdAt,value
2017-10-16T00:00:30.337Z,15.78
2017-10-16T00:03:04.570Z,15.79
2017-10-16T00:05:36.617Z,15.81
2017-10-16T00:08:08.642Z,15.81
2017-10-16T00:10:40.717Z,15.77
2017-10-16T00:13:12.748Z,15.78
2017-10-16T00:15:45.124Z,15.77
2017-10-16T00:18:23.457Z,15.76
2017-10-16T00:20:55.855Z,15.73
2017-10-16T00:23:27.806Z,15.70
2017-10-16T00:25:59.794Z,15.65
2017-10-16T00:28:32.106Z,15.62
2017-10-16T00:31:04.750Z,15.59
2017-10-16T00:33:37.379Z,15.57
2017-10-16T00:36:09.445Z,15.56
2017-10-16T00:38:41.446Z,15.53
2017-10-16T00:43:47.075Z,15.48
2017-10-16T00:46:21.428Z,15.47
2017-10-16T00:48:53.820Z,15.47
2017-10-16T00:51:26.427Z,15.46
2017-10-16T00:53:58.449Z,15.43
2017-10-16T00:56:32.408Z,15.41
2017-10-16T00:59:05.220Z,15.40
2017-10-16T01:01:37.752Z,15.37
2017-10-16T01:04:10.430Z,15.35
2017-10-16T01:06:42.741Z,15.33
2017-10-16T01:09:14.931Z,15.32
2017-10-16T01:11:47.007Z,15.29
2017-10-16T01:14:19.402Z,15.28
2017-10-16T01:16:51.946Z,15.26
2017-10-16T01:19:24.054Z,15.25
2017-10-16T01:21:56.197Z,15.24
2017-10-16T01:24:28.728Z,15.23
2017-10-16T01:27:00.952Z,15.21
2017-10-16T01:29:33.190Z,15.19
2017-10-16T01:32:06.235Z,15.17
2017-10-16T01:34:38.637Z,15.14
2017-10-16T01:37:11.214Z,15.12
2017-10-16T01:39:43.376Z,15.10
2017-10-16T01:42:15.715Z,15.09
2017-10-16T01:44:48.062Z,15.08
2017-10-16T01:47:21.469Z,15.07
2017-10-16T01:49:53.991Z,15.07
2017-10-16T01:52:26.364Z,15.06
2017-10-16T01:54:58.465Z,15.06
2017-10-16T01:57:30.754Z,15.05
2017-10-16T02:00:04.377Z,15.04
2017-10-16T02:02:38.009Z,15.02
2017-10-16T02:05:10.234Z,15.01
2017-10-16T02:07:42.817Z,14.99
2017-10-16T02:10:15.513Z,15.00
2017-10-16T02:12:47.665Z,14.99
2017-10-16T02:15:21.449Z,14.97
2017-10-16T02:17:53.422Z,14.93
2017-10-16T02:20:25.767Z,14.92
2017-10-16T02:22:57.804Z,14.91
2017-10-16T02:25:29.916Z,14.89
2017-10-16T02:28:03.236Z,14.88
2017-10-16T02:30:35.274Z,14.84
2017-10-16T02:33:07.846Z,14.82
2017-10-16T02:35:39.934Z,14.81
2017-10-16T02:38:12.103Z,14.83
2017-10-16T02:40:44.569Z,14.86
2017-10-16T02:43:16.980Z,14.85
2017-10-16T02:45:49.414Z,14.86
2017-10-16T02:48:22.352Z,14.84
2017-10-16T02:50:54.670Z,14.83
2017-10-16T02:53:27.216Z,14.83
2017-10-16T02:55:59.411Z,14.80
2017-10-16T02:58:31.479Z,14.80
2017-10-16T03:01:04.450Z,14.79
2017-10-16T03:03:36.743Z,14.80
2017-10-16T03:06:09.196Z,14.78
2017-10-16T03:08:42.251Z,14.78
2017-10-16T03:11:14.993Z,14.77
2017-10-16T03:16:22.294Z,14.74
2017-10-16T03:18:54.329Z,14.73
2017-10-16T03:21:27.121Z,14.73
2017-10-16T03:23:59.407Z,14.74
2017-10-16T03:26:31.739Z,14.74
2017-10-16T03:29:04.096Z,14.72
2017-10-16T03:31:37.529Z,14.72
2017-10-16T03:34:10.111Z,14.71
2017-10-16T03:36:42.217Z,14.71
2017-10-16T03:39:14.962Z,14.70
2017-10-16T03:41:47.357Z,14.69
2017-10-16T03:44:21.702Z,14.68
2017-10-16T03:46:54.439Z,14.65
2017-10-16T03:49:26.713Z,14.61
2017-10-16T03:51:58.898Z,14.59
2017-10-16T03:54:31.462Z,14.55
2017-10-16T03:57:03.804Z,14.54
2017-10-16T03:59:36.114Z,14.52
2017-10-16T04:02:08.415Z,14.50
2017-10-16T04:04:40.419Z,14.49
2017-10-16T04:07:13.424Z,14.47
2017-10-16T04:09:46.245Z,14.49
2017-10-16T04:12:18.534Z,14.46
2017-10-16T04:14:53.680Z,14.44
2017-10-16T04:20:30.024Z,14.39
2017-10-16T04:23:02.137Z,14.40
2017-10-16T04:25:33.589Z,14.39
2017-10-16T04:28:06.450Z,14.38
2017-10-16T04:30:37.886Z,14.36
2017-10-16T04:33:11.467Z,14.34
2017-10-16T04:35:44.196Z,14.34
2017-10-16T04:38:15.741Z,14.32
2017-10-16T04:40:47.020Z,14.31
2017-10-16T04:43:19.078Z,14.30
2017-10-16T04:45:50.850Z,14.29
2017-10-16T04:48:22.664Z,14.28
2017-10-16T04:50:56.936Z,14.32
2017-10-16T04:53:28.117Z,14.33
2017-10-16T04:55:59.400Z,14.34
2017-10-16T04:58:30.981Z,14.36
2017-10-16T05:01:02.684Z,14.36
2017-10-16T05:03:38.387Z,14.35
2017-10-16T05:06:14.181Z,14.37
2017-10-16T05:08:46.194Z,14.38
2017-10-16T05:11:24.553Z,14.40
2017-10-16T05:13:55.964Z,14.42
2017-10-16T05:16:28.826Z,14.42
2017-10-16T05:21:46.401Z,14.43
2017-10-16T05:24:21.447Z,14.46
2017-10-16T05:26:53.285Z,14.47
2017-10-16T05:29:27.746Z,14.44
2017-10-16T05:38:23.969Z,14.46
2017-10-16T05:41:11.249Z,14.44
2017-10-16T05:43:44.461Z,14.45
2017-10-16T05:46:17.160Z,14.45
2017-10-16T05:48:48.888Z,14.45
2017-10-16T05:51:20.716Z,14.45
2017-10-16T05:53:52.091Z,14.45
2017-10-16T05:56:23.552Z,14.49
2017-10-16T05:59:00.449Z,14.53
2017-10-16T06:01:33.271Z,14.57
2017-10-16T06:04:05.585Z,14.61
2017-10-16T06:06:37.059Z,14.63
2017-10-16T06:09:11.415Z,14.66
2017-10-16T06:11:42.856Z,14.71
2017-10-16T06:14:14.458Z,14.75
2017-10-16T06:16:46.061Z,14.80
2017-10-16T06:19:17.202Z,14.86
2017-10-16T06:21:48.548Z,14.94
2017-10-16T06:24:21.581Z,14.97
2017-10-16T06:26:54.012Z,15.02
2017-10-16T06:29:25.834Z,15.08
2017-10-16T06:31:57.395Z,15.17
2017-10-16T06:34:30.359Z,15.26
2017-10-16T06:37:04.634Z,15.32
2017-10-16T06:39:35.971Z,15.40
2017-10-16T06:42:08.762Z,15.49
2017-10-16T06:44:42.900Z,15.55
2017-10-16T06:47:15.564Z,15.63
2017-10-16T06:49:48.801Z,15.69
2017-10-16T06:52:22.142Z,15.77
2017-10-16T06:54:53.719Z,15.76
2017-10-16T06:57:32.967Z,15.79
2017-10-16T07:00:12.590Z,15.78
2017-10-16T07:02:44.608Z,15.81
2017-10-16T07:05:19.187Z,15.91
2017-10-16T07:07:52.575Z,15.99
2017-10-16T07:13:25.198Z,16.21
2017-10-16T07:15:59.387Z,16.35
2017-10-16T07:18:31.788Z,16.54
2017-10-16T07:21:04.025Z,16.70
2017-10-16T07:23:37.535Z,16.84
2017-10-16T07:26:10.343Z,16.98
2017-10-16T07:28:42.723Z,17.12
2017-10-16T07:31:14.718Z,17.36
2017-10-16T07:33:46.703Z,17.71
2017-10-16T07:36:20.720Z,18.49
2017-10-16T07:38:53.635Z,19.33
2017-10-16T07:41:27.245Z,19.97
2017-10-16T07:43:59.632Z,20.64
2017-10-16T07:46:33.260Z,21.32
2017-10-16T07:49:06.320Z,21.77
2017-10-16T07:51:39.859Z,22.19
2017-10-16T07:54:12.354Z,22.48
2017-10-16T07:56:48.958Z,22.44
2017-10-16T07:59:22.330Z,22.68
2017-10-16T08:01:54.369Z,22.80
2017-10-16T08:05:00.210Z,23.07
2017-10-16T08:07:32.535Z,23.85
2017-10-16T08:10:06.238Z,24.29
2017-10-16T08:12:38.345Z,24.56
2017-10-16T08:15:10.374Z,24.95
2017-10-16T08:17:42.878Z,25.34
2017-10-16T08:20:15.165Z,25.60
2017-10-16T08:22:47.358Z,25.81
2017-10-16T08:25:22.557Z,26.31
2017-10-16T08:27:54.645Z,26.42
2017-10-16T08:30:31.679Z,26.99
2017-10-16T08:33:04.735Z,27.12
2017-10-16T08:35:36.829Z,27.59
2017-10-16T08:40:54.515Z,27.62
2017-10-16T08:43:27.335Z,28.08
2017-10-16T08:45:59.210Z,28.05
2017-10-16T08:48:31.687Z,28.60
2017-10-16T08:51:05.070Z,28.27
2017-10-16T08:59:50.669Z,27.52
2017-10-16T09:02:30.253Z,28.11
2017-10-16T09:05:02.077Z,28.47
2017-10-16T09:07:33.355Z,29.05
2017-10-16T09:16:19.464Z,30.15
2017-10-16T09:18:52.099Z,30.52
2017-10-16T09:24:27.666Z,32.90
2017-10-16T09:27:01.083Z,33.46
2017-10-16T09:29:33.773Z,34.09
2017-10-16T09:32:06.575Z,34.64
2017-10-16T09:34:38.910Z,35.31
2017-10-16T09:37:11.045Z,35.54
2017-10-16T09:39:43.340Z,36.14
2017-10-16T09:42:16.769Z,36.61
2017-10-16T09:44:49.010Z,37.05
2017-10-16T09:47:21.008Z,37.66
2017-10-16T09:49:54.177Z,38.26
2017-10-16T09:52:26.438Z,38.62
2017-10-16T09:55:00.078Z,38.81
2017-10-16T09:57:32.212Z,38.91
2017-10-16T10:00:05.359Z,40.05
2017-10-16T10:02:38.016Z,40.38
2017-10-16T10:05:10.177Z,40.49
2017-10-16T10:07:42.410Z,41.11
2017-10-16T10:10:14.525Z,41.65
2017-10-16T10:12:46.718Z,41.91
2017-10-16T10:15:19.203Z,41.76
2017-10-16T10:17:51.417Z,41.78
2017-10-16T10:20:23.507Z,42.44
2017-10-16T10:22:56.902Z,42.44
2017-10-16T10:25:29.047Z,41.65
2017-10-16T10:28:04.243Z,42.28
2017-10-16T10:30:36.355Z,42.05
2017-10-16T10:33:08.360Z,41.67
2017-10-16T10:35:40.999Z,41.61
2017-10-16T10:38:13.200Z,42.68
2017-10-16T10:40:45.240Z,43.39
2017-10-16T10:46:07.395Z,44.52
2017-10-16T10:48:39.818Z,45.15
2017-10-16T10:51:12.132Z,45.12
2017-10-16T10:53:45.058Z,44.82
2017-10-16T10:56:17.316Z,45.97
2017-10-16T10:58:49.556Z,46.43
2017-10-16T11:01:21.811Z,46.96
2017-10-16T11:03:55.536Z,46.60
2017-10-16T11:06:28.508Z,46.87
2017-10-16T11:09:00.769Z,46.54
2017-10-16T11:11:33.006Z,46.74
2017-10-16T11:14:06.517Z,47.59
2017-10-16T11:16:40.153Z,48.51
2017-10-16T11:19:12.644Z,47.28
2017-10-16T11:21:45.188Z,47.38
2017-10-16T11:24:17.365Z,48.06
2017-10-16T11:26:49.490Z,49.12
2017-10-16T11:29:22.290Z,48.39
2017-10-16T11:31:54.865Z,49.44
2017-10-16T11:34:27.584Z,50.09
2017-10-16T11:37:01.074Z,50.42
2017-10-16T11:39:33.372Z,50.84
2017-10-16T11:42:07.523Z,49.55
2017-10-16T11:44:39.746Z,49.76
2017-10-16T11:47:12.405Z,49.98
2017-10-16T11:49:44.705Z,49.90
2017-10-16T11:52:17.201Z,50.66
2017-10-16T11:54:49.310Z,51.68
2017-10-16T11:57:21.772Z,52.46
2017-10-16T11:59:54.767Z,51.81
2017-10-16T12:02:26.973Z,51.78
2017-10-16T12:05:00.092Z,52.34
2017-10-16T12:07:32.707Z,51.60
2017-10-16T12:10:06.293Z,50.71
2017-10-16T12:12:38.852Z,51.79
2017-10-16T12:15:11.046Z,52.56
2017-10-16T12:17:43.522Z,52.64
2017-10-16T12:20:15.608Z,52.55
2017-10-16T12:22:47.793Z,53.06
2017-10-16T12:25:20.395Z,52.87
2017-10-16T12:27:52.721Z,52.00
2017-10-16T12:30:25.047Z,52.38
2017-10-16T12:32:58.972Z,50.62
2017-10-16T12:35:31.476Z,51.21
2017-10-16T12:38:05.184Z,51.96
2017-10-16T12:40:37.856Z,52.30
2017-10-16T12:43:10.811Z,51.53
2017-10-16T12:45:43.396Z,51.79
2017-10-16T12:48:15.655Z,52.31
2017-10-16T12:50:48.124Z,53.39
2017-10-16T12:53:20.944Z,53.09
2017-10-16T12:55:53.409Z,51.92
2017-10-16T12:58:26.343Z,52.39
2017-10-16T13:01:00.436Z,52.36
2017-10-16T13:03:32.996Z,52.14
2017-10-16T13:06:06.268Z,52.66
2017-10-16T13:08:39.135Z,52.22
2017-10-16T13:11:11.655Z,52.24
2017-10-16T13:13:45.613Z,52.09
2017-10-16T13:16:19.196Z,51.32
2017-10-16T13:21:29.523Z,52.23
2017-10-16T13:24:03.236Z,51.68
2017-10-16T13:26:35.844Z,51.88
2017-10-16T13:29:08.403Z,51.49
2017-10-16T13:31:41.536Z,51.08
2017-10-16T13:34:14.155Z,50.68
2017-10-16T13:36:46.731Z,50.90
2017-10-16T13:39:19.744Z,50.34
2017-10-16T13:41:52.132Z,50.39
2017-10-16T13:44:24.716Z,49.84
2017-10-16T13:46:59.012Z,49.14
2017-10-16T13:49:31.521Z,46.46
2017-10-16T13:52:05.996Z,43.80
2017-10-16T13:54:38.895Z,41.52
2017-10-16T13:57:11.521Z,40.09
2017-10-16T13:59:44.415Z,39.84
2017-10-16T14:02:16.712Z,41.68
2017-10-16T14:04:49.160Z,43.66
2017-10-16T14:07:22.143Z,44.74
2017-10-16T14:09:55.815Z,45.50
2017-10-16T14:12:29.164Z,46.21
2017-10-16T14:15:05.350Z,46.55
2017-10-16T14:17:38.196Z,45.64
2017-10-16T14:20:10.620Z,45.59
2017-10-16T14:22:43.060Z,45.02
2017-10-16T14:25:15.663Z,44.34
2017-10-16T14:27:49.237Z,43.90
2017-10-16T14:30:21.771Z,43.24
2017-10-16T14:32:54.660Z,42.85
2017-10-16T14:35:27.531Z,42.92
2017-10-16T14:38:03.094Z,42.73
2017-10-16T14:40:36.964Z,42.14
2017-10-16T14:43:10.440Z,41.08
2017-10-16T14:45:43.788Z,39.28
2017-10-16T14:48:17.996Z,37.60
2017-10-16T14:50:50.523Z,36.47
2017-10-16T14:53:22.804Z,35.50
2017-10-16T14:56:05.691Z,34.78
2017-10-16T14:58:37.963Z,34.30
2017-10-16T15:01:31.843Z,33.86
2017-10-16T15:04:05.151Z,33.38
2017-10-16T15:06:37.918Z,32.85
2017-10-16T15:09:10.237Z,32.49
2017-10-16T15:11:42.527Z,32.11
2017-10-16T15:14:15.212Z,31.75
2017-10-16T15:16:54.684Z,31.42
2017-10-16T15:19:32.255Z,31.19
2017-10-16T15:22:08.212Z,30.92
2017-10-16T15:24:51.639Z,31.92
2017-10-16T15:27:25.436Z,34.58
2017-10-16T15:30:01.116Z,36.37
2017-10-16T15:32:33.796Z,37.62
2017-10-16T15:35:06.939Z,38.43
2017-10-16T15:37:45.816Z,39.05
2017-10-16T15:43:12.992Z,39.33
2017-10-16T15:45:47.216Z,39.36
2017-10-16T15:48:19.781Z,39.32
2017-10-16T15:50:52.339Z,38.73
2017-10-16T15:53:24.937Z,38.08
2017-10-16T15:55:58.393Z,36.43
2017-10-16T15:58:30.977Z,34.37
2017-10-16T16:01:06.644Z,32.71
2017-10-16T16:06:44.336Z,30.23
2017-10-16T16:09:16.786Z,29.44
2017-10-16T16:11:50.044Z,28.78
2017-10-16T16:14:27.152Z,28.19
2017-10-16T16:16:59.504Z,27.67
2017-10-16T16:19:31.916Z,27.24
2017-10-16T16:22:06.196Z,26.89
2017-10-16T16:24:38.520Z,26.56
2017-10-16T16:27:10.876Z,26.23
2017-10-16T16:29:43.520Z,25.95
2017-10-16T16:32:16.152Z,25.67
2017-10-16T16:34:48.995Z,25.39
2017-10-16T16:37:22.117Z,25.15
2017-10-16T16:39:54.820Z,24.93
2017-10-16T16:42:29.432Z,24.72
2017-10-16T16:45:02.320Z,24.53
2017-10-16T16:47:35.964Z,24.34
2017-10-16T16:50:08.729Z,24.16
2017-10-16T16:52:41.337Z,24.02
2017-10-16T16:55:13.558Z,23.89
2017-10-16T16:57:45.705Z,23.76
2017-10-16T17:00:19.576Z,23.63
2017-10-16T17:02:52.216Z,23.49
2017-10-16T17:05:25.817Z,23.36
2017-10-16T17:07:58.096Z,23.22
2017-10-16T17:10:30.423Z,23.12
2017-10-16T17:13:02.968Z,23.05
2017-10-16T17:15:35.256Z,22.98
2017-10-16T17:18:09.576Z,22.89
2017-10-16T17:20:41.745Z,22.80
2017-10-16T17:23:13.997Z,22.71
2017-10-16T17:25:46.635Z,22.60
2017-10-16T17:28:20.504Z,22.55
2017-10-16T17:30:52.734Z,22.49
2017-10-16T17:33:26.978Z,22.44
2017-10-16T17:36:00.439Z,22.33
2017-10-16T17:38:33.311Z,22.21
2017-10-16T17:41:06.253Z,22.12
2017-10-16T17:43:38.722Z,22.04
2017-10-16T17:46:12.731Z,22.00
2017-10-16T17:48:45.068Z,21.95
2017-10-16T17:51:18.043Z,21.93
2017-10-16T17:53:50.280Z,21.89
2017-10-16T17:56:24.687Z,21.82
2017-10-16T17:58:57.744Z,21.76
2017-10-16T18:01:31.459Z,21.70
2017-10-16T18:04:07.229Z,21.62
2017-10-16T18:06:39.606Z,21.57
2017-10-16T18:09:11.998Z,21.51
2017-10-16T18:11:44.784Z,21.46
2017-10-16T18:14:19.049Z,21.42
2017-10-16T18:16:52.397Z,21.38
2017-10-16T18:19:26.413Z,21.34
2017-10-16T18:21:58.569Z,21.29
2017-10-16T18:24:30.893Z,21.24
2017-10-16T18:27:03.765Z,21.20
2017-10-16T18:29:36.030Z,21.15
2017-10-16T18:32:08.567Z,21.11
2017-10-16T18:34:42.379Z,21.05
2017-10-16T18:37:14.886Z,20.94
2017-10-16T18:39:47.866Z,20.87
2017-10-16T18:42:21.917Z,20.82
2017-10-16T18:44:54.384Z,20.77
2017-10-16T18:47:28.252Z,20.73
2017-10-16T18:50:01.391Z,20.68
2017-10-16T18:52:33.872Z,20.61
2017-10-16T18:55:06.393Z,20.56
2017-10-16T18:57:39.308Z,20.48
2017-10-16T19:00:11.898Z,20.43
2017-10-16T19:02:45.144Z,20.40
2017-10-16T19:05:17.555Z,20.39
2017-10-16T19:07:50.440Z,20.33
2017-10-16T19:10:24.698Z,20.29
2017-10-16T19:12:57.602Z,20.26
2017-10-16T19:15:30.146Z,20.21
2017-10-16T19:18:03.734Z,20.18
2017-10-16T19:20:36.373Z,20.15
2017-10-16T19:23:15.074Z,20.09
2017-10-16T19:25:47.713Z,20.01
2017-10-16T19:28:20.421Z,19.95
2017-10-16T19:30:52.978Z,19.88
2017-10-16T19:33:26.901Z,19.85
2017-10-16T19:36:00.513Z,19.82
2017-10-16T19:38:32.953Z,19.80
2017-10-16T19:41:06.434Z,19.77
2017-10-16T19:43:39.354Z,19.76
2017-10-16T19:46:18.123Z,19.68
2017-10-16T19:48:50.623Z,19.66
2017-10-16T19:51:23.114Z,19.63
2017-10-16T19:53:55.563Z,19.57
2017-10-16T19:56:29.211Z,19.54
2017-10-16T19:59:01.984Z,19.51
2017-10-16T20:01:34.141Z,19.48
2017-10-16T20:04:11.952Z,19.45
2017-10-16T20:06:44.046Z,19.39
2017-10-16T20:09:16.984Z,19.34
2017-10-16T20:11:49.430Z,19.30
2017-10-16T20:14:23.874Z,19.27
2017-10-16T20:16:56.089Z,19.25
2017-10-16T20:19:30.079Z,19.21
2017-10-16T20:22:03.366Z,19.14
2017-10-16T20:24:35.603Z,19.13
2017-10-16T20:27:09.256Z,19.13
2017-10-16T20:29:41.388Z,19.12
2017-10-16T20:32:14.704Z,19.06
2017-10-16T20:34:47.146Z,19.01
2017-10-16T20:37:19.393Z,18.97
2017-10-16T20:39:52.534Z,18.93
2017-10-16T20:42:25.895Z,18.90
2017-10-16T20:44:58.209Z,18.83
2017-10-16T20:47:30.765Z,18.82
2017-10-16T20:50:05.768Z,18.80
2017-10-16T20:52:38.235Z,18.77
2017-10-16T20:55:10.543Z,18.69
2017-10-16T20:57:44.645Z,18.67
2017-10-16T21:00:18.016Z,18.64
2017-10-16T21:02:50.326Z,18.58
2017-10-16T21:05:23.281Z,18.54
2017-10-16T21:07:56.634Z,18.47
2017-10-16T21:10:29.988Z,18.44
2017-10-16T21:13:03.148Z,18.39
2017-10-16T21:15:35.546Z,18.32
2017-10-16T21:18:11.183Z,18.27
2017-10-16T21:20:45.752Z,18.23
2017-10-16T21:23:18.457Z,18.18
2017-10-16T21:25:50.787Z,18.14
2017-10-16T21:28:24.157Z,18.13
2017-10-16T21:30:56.432Z,18.13
2017-10-16T21:33:30.002Z,18.10
2017-10-16T21:36:04.726Z,18.08
2017-10-16T21:38:37.720Z,18.07
2017-10-16T21:41:10.225Z,18.03
2017-10-16T21:43:43.073Z,18.00
2017-10-16T21:46:16.189Z,18.00
2017-10-16T21:48:49.728Z,17.97
2017-10-16T21:51:26.200Z,17.95
2017-10-16T21:53:58.847Z,17.93
2017-10-16T21:56:32.028Z,17.91
2017-10-16T21:59:05.780Z,17.88
2017-10-16T22:01:37.729Z,17.85
2017-10-16T22:04:10.063Z,17.81
2017-10-16T22:06:42.541Z,17.80
2017-10-16T22:09:14.755Z,17.80
2017-10-16T22:11:46.801Z,17.78
2017-10-16T22:14:20.362Z,17.75
2017-10-16T22:16:52.712Z,17.75
2017-10-16T22:19:25.171Z,17.72
2017-10-16T22:21:57.707Z,17.68
2017-10-16T22:24:30.682Z,17.67
2017-10-16T22:27:02.948Z,17.67
2017-10-16T22:29:35.710Z,17.65
2017-10-16T22:32:08.883Z,17.63
2017-10-16T22:34:41.818Z,17.56
2017-10-16T22:37:13.950Z,17.47
2017-10-16T22:39:46.241Z,17.41
2017-10-16T22:42:19.985Z,17.37
2017-10-16T22:44:53.663Z,17.38
2017-10-16T22:47:27.357Z,17.37
2017-10-16T22:49:59.530Z,17.33
2017-10-16T22:52:32.380Z,17.29
2017-10-16T22:55:04.822Z,17.26
2017-10-16T22:57:36.916Z,17.20
2017-10-16T23:00:11.194Z,17.16
2017-10-16T23:02:43.163Z,17.13
2017-10-16T23:05:16.272Z,17.11
2017-10-16T23:07:48.796Z,17.08
2017-10-16T23:10:21.992Z,17.07
2017-10-16T23:12:54.184Z,17.03
2017-10-16T23:15:27.657Z,17.01
2017-10-16T23:17:59.740Z,17.00
2017-10-16T23:20:33.139Z,16.97
2017-10-16T23:23:06.341Z,16.94
2017-10-16T23:25:38.531Z,16.91
2017-10-16T23:28:13.205Z,16.86
2017-10-16T23:30:46.055Z,16.81
2017-10-16T23:33:18.240Z,16.79
2017-10-16T23:35:50.419Z,16.77
2017-10-16T23:38:22.860Z,16.72
2017-10-16T23:40:55.090Z,16.69
2017-10-16T23:43:28.964Z,16.66
2017-10-16T23:46:03.552Z,16.59
2017-10-16T23:48:36.608Z,16.54
2017-10-16T23:51:08.872Z,16.50
2017-10-16T23:53:41.036Z,16.50
2017-10-16T23:56:14.187Z,16.48
2017-10-16T23:58:46.237Z,16.44
